createdAt,value
2019-06-27T00:00:25.135Z,28.00
2019-06-27T00:02:54.398Z,28.00
2019-06-27T00:05:22.129Z,28.00
2019-06-27T00:07:49.909Z,28.00
2019-06-27T00:10:18.255Z,28.00
2019-06-27T00:12:46.382Z,28.00
2019-06-27T00:15:14.235Z,28.00
2019-06-27T00:17:42.094Z,27.90
2019-06-27T00:20:09.959Z,27.80
2019-06-27T00:22:40.881Z,27.80
2019-06-27T00:25:07.579Z,27.80
2019-06-27T00:27:35.434Z,27.90
2019-06-27T00:30:03.304Z,27.90
2019-06-27T00:32:31.947Z,27.90
2019-06-27T00:34:59.607Z,27.80
2019-06-27T00:37:27.416Z,27.80
2019-06-27T00:39:55.310Z,27.90
2019-06-27T00:42:23.055Z,27.80
2019-06-27T00:44:50.622Z,27.80
2019-06-27T00:47:18.391Z,27.80
2019-06-27T00:49:46.054Z,27.60
2019-06-27T00:52:13.826Z,27.50
2019-06-27T00:54:41.492Z,27.50
2019-06-27T00:57:14.012Z,27.50
2019-06-27T00:59:38.846Z,27.40
2019-06-27T01:02:06.619Z,27.30
2019-06-27T01:04:34.294Z,27.40
2019-06-27T01:07:02.080Z,27.40
2019-06-27T01:09:29.915Z,27.40
2019-06-27T01:11:57.697Z,27.40
2019-06-27T01:14:25.548Z,27.40
2019-06-27T01:16:53.287Z,27.40
2019-06-27T01:19:20.987Z,27.30
2019-06-27T01:21:49.340Z,27.30
2019-06-27T01:24:17.204Z,27.00
2019-06-27T01:26:44.871Z,26.70
2019-06-27T01:29:12.647Z,26.50
2019-06-27T01:31:40.517Z,26.30
2019-06-27T01:34:08.297Z,26.30
2019-06-27T01:36:36.061Z,26.20
2019-06-27T01:39:04.200Z,26.10
2019-06-27T01:41:31.958Z,26.10
2019-06-27T01:43:59.910Z,26.00
2019-06-27T01:46:53.426Z,26.00
2019-06-27T01:49:21.311Z,26.10
2019-06-27T01:51:49.090Z,26.20
2019-06-27T01:54:16.766Z,26.20
2019-06-27T01:56:44.443Z,26.10
2019-06-27T01:59:12.190Z,26.10
2019-06-27T02:01:39.953Z,26.00
2019-06-27T02:04:07.828Z,26.10
2019-06-27T02:06:35.564Z,26.20
2019-06-27T02:09:04.571Z,26.20
2019-06-27T02:11:32.367Z,26.20
2019-06-27T02:14:00.225Z,26.30
2019-06-27T02:16:27.883Z,26.30
2019-06-27T02:18:55.678Z,26.20
2019-06-27T02:21:23.267Z,26.20
2019-06-27T02:23:51.023Z,26.00
2019-06-27T02:26:18.699Z,25.80
2019-06-27T02:28:46.427Z,25.70
2019-06-27T02:31:14.278Z,25.50
2019-06-27T02:33:42.038Z,25.50
2019-06-27T02:36:09.830Z,25.50
2019-06-27T02:38:37.532Z,25.60
2019-06-27T02:41:05.259Z,25.60
2019-06-27T02:43:33.527Z,25.60
2019-06-27T02:46:01.384Z,25.70
2019-06-27T02:48:29.050Z,25.70
2019-06-27T02:50:56.714Z,25.70
2019-06-27T02:53:24.389Z,25.90
2019-06-27T02:55:52.221Z,25.90
2019-06-27T02:58:31.306Z,25.90
2019-06-27T03:00:49.620Z,25.80
2019-06-27T03:03:17.415Z,25.70
2019-06-27T03:05:45.246Z,25.60
2019-06-27T03:08:13.037Z,25.60
2019-06-27T03:10:40.904Z,25.70
2019-06-27T03:13:08.573Z,25.60
2019-06-27T03:15:36.347Z,25.60
2019-06-27T03:18:04.159Z,25.60
2019-06-27T03:20:32.110Z,25.60
2019-06-27T03:22:59.961Z,25.50
2019-06-27T03:25:27.751Z,25.50
2019-06-27T03:27:55.483Z,25.50
2019-06-27T03:30:36.292Z,25.50
2019-06-27T03:33:04.176Z,25.50
2019-06-27T03:35:31.916Z,25.30
2019-06-27T03:37:59.675Z,25.20
2019-06-27T03:40:27.334Z,25.20
2019-06-27T03:42:55.105Z,25.20
2019-06-27T03:45:22.790Z,25.20
2019-06-27T03:47:50.551Z,25.20
2019-06-27T03:50:18.320Z,25.10
2019-06-27T03:52:46.103Z,25.20
2019-06-27T03:55:13.944Z,25.20
2019-06-27T03:57:44.910Z,25.20
2019-06-27T04:00:15.870Z,25.30
2019-06-27T04:02:45.195Z,25.30
2019-06-27T04:05:13.087Z,25.20
2019-06-27T04:07:40.839Z,25.20
2019-06-27T04:10:08.515Z,25.20
2019-06-27T04:12:36.507Z,25.20
2019-06-27T04:15:04.780Z,25.20
2019-06-27T04:17:33.263Z,25.20
2019-06-27T04:20:01.037Z,25.10
2019-06-27T04:22:29.663Z,25.20
2019-06-27T04:25:03.654Z,25.10
2019-06-27T04:27:32.137Z,25.10
2019-06-27T04:29:59.812Z,25.10
2019-06-27T04:32:27.627Z,25.10
2019-06-27T04:34:55.298Z,25.00
2019-06-27T04:37:23.045Z,25.10
2019-06-27T04:39:50.734Z,25.10
2019-06-27T04:42:18.486Z,25.20
2019-06-27T04:44:46.220Z,25.10
2019-06-27T04:47:13.921Z,25.10
2019-06-27T04:49:41.692Z,25.10
2019-06-27T04:52:09.360Z,25.10
2019-06-27T04:54:37.140Z,25.00
2019-06-27T04:57:04.831Z,25.10
2019-06-27T04:59:51.477Z,25.00
2019-06-27T05:02:02.111Z,25.10
2019-06-27T05:04:30.171Z,25.20
2019-06-27T05:06:57.853Z,25.20
2019-06-27T05:09:25.597Z,25.20
2019-06-27T05:11:53.301Z,25.20
2019-06-27T05:14:21.185Z,25.20
2019-06-27T05:16:48.924Z,25.20
2019-06-27T05:19:16.615Z,25.20
2019-06-27T05:21:44.334Z,25.20
2019-06-27T05:24:12.399Z,25.20
2019-06-27T05:26:40.134Z,25.20
2019-06-27T05:29:07.977Z,25.20
2019-06-27T05:31:35.732Z,25.20
2019-06-27T05:34:03.510Z,25.20
2019-06-27T05:36:31.270Z,25.30
2019-06-27T05:38:59.236Z,25.30
2019-06-27T05:41:26.916Z,25.30
2019-06-27T05:43:54.586Z,25.30
2019-06-27T05:46:22.350Z,25.40
2019-06-27T05:48:50.059Z,25.50
2019-06-27T05:51:17.892Z,25.50
2019-06-27T05:53:45.858Z,25.50
2019-06-27T05:56:13.804Z,25.50
2019-06-27T05:58:41.469Z,25.50
2019-06-27T06:01:09.242Z,25.50
2019-06-27T06:03:36.927Z,25.60
2019-06-27T06:06:04.715Z,25.80
2019-06-27T06:08:32.381Z,25.90
2019-06-27T06:11:00.149Z,25.90
2019-06-27T06:13:27.910Z,25.90
2019-06-27T06:15:55.661Z,25.90
2019-06-27T06:18:23.432Z,26.00
2019-06-27T06:20:51.070Z,26.00
2019-06-27T06:23:18.765Z,26.00
2019-06-27T06:25:46.440Z,26.00
2019-06-27T06:28:14.105Z,26.10
2019-06-27T06:30:44.826Z,26.20
2019-06-27T06:33:11.614Z,26.30
2019-06-27T06:35:39.391Z,26.30
2019-06-27T06:38:07.185Z,26.40
2019-06-27T06:40:34.923Z,26.40
2019-06-27T06:43:02.697Z,26.30
2019-06-27T06:45:30.358Z,26.30
2019-06-27T06:47:58.190Z,26.30
2019-06-27T06:50:25.855Z,26.40
2019-06-27T06:52:53.671Z,26.30
2019-06-27T06:55:21.327Z,26.20
2019-06-27T06:57:49.084Z,26.30
2019-06-27T07:00:17.161Z,26.30
2019-06-27T07:02:45.344Z,26.40
2019-06-27T07:05:13.222Z,26.30
2019-06-27T07:07:41.049Z,26.30
2019-06-27T07:10:09.138Z,26.40
2019-06-27T07:12:37.296Z,26.40
2019-06-27T07:15:05.128Z,26.40
2019-06-27T07:17:33.689Z,26.40
2019-06-27T07:20:01.645Z,26.40
2019-06-27T07:22:30.793Z,26.50
2019-06-27T07:24:58.478Z,26.60
2019-06-27T07:27:26.374Z,26.70
2019-06-27T07:29:54.042Z,26.80
2019-06-27T07:32:21.881Z,26.80
2019-06-27T07:34:49.594Z,26.70
2019-06-27T07:37:17.354Z,26.70
2019-06-27T07:39:45.051Z,26.80
2019-06-27T07:42:12.713Z,26.80
2019-06-27T07:44:40.359Z,26.80
2019-06-27T07:47:08.048Z,26.80
2019-06-27T07:49:35.850Z,26.70
2019-06-27T07:52:03.652Z,26.80
2019-06-27T07:54:31.425Z,26.90
2019-06-27T07:56:59.133Z,26.80
2019-06-27T07:59:26.892Z,26.90
2019-06-27T08:01:54.534Z,27.00
2019-06-27T08:04:22.310Z,27.00
2019-06-27T08:06:49.973Z,27.00
2019-06-27T08:09:17.730Z,26.90
2019-06-27T08:11:45.429Z,27.00
2019-06-27T08:14:13.274Z,27.00
2019-06-27T08:16:40.967Z,27.10
2019-06-27T08:19:08.804Z,27.20
2019-06-27T08:21:36.433Z,27.20
2019-06-27T08:24:04.210Z,27.30
2019-06-27T08:26:31.866Z,27.30
2019-06-27T08:28:59.623Z,27.40
2019-06-27T08:31:27.471Z,27.60
2019-06-27T08:33:55.309Z,27.70
2019-06-27T08:36:23.019Z,27.70
2019-06-27T08:38:50.766Z,27.80
2019-06-27T08:41:18.478Z,27.90
2019-06-27T08:43:46.141Z,27.90
2019-06-27T08:46:13.809Z,28.10
2019-06-27T08:48:41.485Z,28.10
2019-06-27T08:51:09.385Z,28.20
2019-06-27T08:53:36.970Z,28.20
2019-06-27T08:56:04.734Z,28.10
2019-06-27T08:58:32.418Z,28.10
2019-06-27T09:01:00.169Z,28.20
2019-06-27T09:03:27.854Z,28.20
2019-06-27T09:05:55.605Z,28.20
2019-06-27T09:08:23.282Z,28.20
2019-06-27T09:10:50.993Z,28.30
2019-06-27T09:13:18.671Z,28.40
2019-06-27T09:15:46.428Z,28.50
2019-06-27T09:18:14.110Z,28.60
2019-06-27T09:20:41.994Z,28.80
2019-06-27T09:23:10.885Z,28.80
2019-06-27T09:25:38.710Z,28.90
2019-06-27T09:28:06.782Z,29.00
2019-06-27T09:30:34.534Z,29.00
2019-06-27T09:33:02.270Z,29.20
2019-06-27T09:35:30.111Z,29.30
2019-06-27T09:37:57.753Z,29.50
2019-06-27T09:40:25.519Z,29.60
2019-06-27T09:42:53.313Z,29.70
2019-06-27T09:45:21.242Z,29.80
2019-06-27T09:47:49.829Z,30.00
2019-06-27T09:50:21.548Z,30.20
2019-06-27T09:52:48.414Z,30.30
2019-06-27T09:55:16.893Z,30.40
2019-06-27T09:57:44.829Z,30.50
2019-06-27T10:00:13.115Z,30.60
2019-06-27T10:02:42.838Z,30.70
2019-06-27T10:05:11.077Z,30.60
2019-06-27T10:07:39.455Z,30.70
2019-06-27T10:10:07.336Z,30.80
2019-06-27T10:12:42.104Z,31.00
2019-06-27T10:15:05.146Z,31.10
2019-06-27T10:17:33.711Z,31.30
2019-06-27T10:20:01.380Z,31.10
2019-06-27T10:22:30.729Z,31.10
2019-06-27T10:24:58.433Z,31.00
2019-06-27T10:27:26.209Z,30.90
2019-06-27T10:29:54.010Z,30.80
2019-06-27T10:32:21.866Z,30.90
2019-06-27T10:34:49.576Z,30.90
2019-06-27T10:37:17.330Z,30.90
2019-06-27T10:39:44.909Z,31.00
2019-06-27T10:42:12.681Z,31.20
2019-06-27T10:44:40.370Z,31.40
2019-06-27T10:47:08.133Z,31.50
2019-06-27T10:49:35.818Z,31.60
2019-06-27T10:52:03.566Z,31.60
2019-06-27T10:54:31.390Z,31.50
2019-06-27T10:56:59.051Z,31.60
2019-06-27T10:59:26.809Z,31.60
2019-06-27T11:01:54.513Z,31.50
2019-06-27T11:04:22.270Z,31.50
2019-06-27T11:06:49.857Z,31.50
2019-06-27T11:09:17.667Z,31.60
2019-06-27T11:11:45.470Z,31.60
2019-06-27T11:14:13.235Z,31.60
2019-06-27T11:16:40.915Z,31.80
2019-06-27T11:19:08.661Z,31.80
2019-06-27T11:21:36.370Z,31.70
2019-06-27T11:24:04.163Z,31.70
2019-06-27T11:28:59.663Z,32.10
2019-06-27T11:31:27.362Z,32.10
2019-06-27T11:33:55.202Z,32.30
2019-06-27T11:36:22.889Z,32.20
2019-06-27T11:38:50.744Z,32.30
2019-06-27T11:41:18.459Z,32.40
2019-06-27T11:43:46.327Z,32.40
2019-06-27T11:46:14.141Z,32.60
2019-06-27T11:48:41.855Z,32.80
2019-06-27T11:51:09.629Z,33.00
2019-06-27T11:53:37.443Z,33.10
2019-06-27T11:56:05.203Z,33.20
2019-06-27T11:58:32.901Z,33.20
2019-06-27T12:01:00.657Z,33.10
2019-06-27T12:03:28.347Z,33.00
2019-06-27T12:05:56.130Z,33.10
2019-06-27T12:08:23.826Z,33.20
2019-06-27T12:10:51.589Z,33.30
2019-06-27T12:13:19.308Z,33.20
2019-06-27T12:15:47.016Z,33.40
2019-06-27T12:18:14.714Z,33.50
2019-06-27T12:20:42.387Z,33.50
2019-06-27T12:23:10.100Z,33.70
2019-06-27T12:25:37.938Z,33.80
2019-06-27T12:28:05.719Z,34.00
2019-06-27T12:30:33.588Z,34.30
2019-06-27T12:33:01.353Z,34.40
2019-06-27T12:35:29.114Z,34.40
2019-06-27T12:37:56.825Z,34.40
2019-06-27T12:40:24.628Z,34.40
2019-06-27T12:42:52.428Z,34.60
2019-06-27T12:45:20.594Z,34.60
2019-06-27T12:47:48.503Z,34.60
2019-06-27T12:50:17.517Z,34.70
2019-06-27T12:52:45.716Z,34.50
2019-06-27T12:55:13.503Z,34.70
2019-06-27T12:57:41.284Z,34.80
2019-06-27T13:00:09.558Z,34.90
2019-06-27T13:02:38.051Z,35.00
2019-06-27T13:05:06.027Z,35.10
2019-06-27T13:07:34.284Z,35.10
2019-06-27T13:10:02.153Z,34.80
2019-06-27T13:12:31.517Z,34.90
2019-06-27T13:14:59.221Z,34.80
2019-06-27T13:17:26.970Z,34.80
2019-06-27T13:19:54.625Z,34.90
2019-06-27T13:22:22.393Z,35.10
2019-06-27T13:24:50.081Z,35.30
2019-06-27T13:27:17.822Z,35.60
2019-06-27T13:29:45.617Z,35.60
2019-06-27T13:32:13.444Z,35.40
2019-06-27T13:34:41.329Z,35.40
2019-06-27T13:37:09.190Z,35.60
2019-06-27T13:39:36.974Z,35.60
2019-06-27T13:42:04.743Z,35.50
2019-06-27T13:44:32.423Z,35.40
2019-06-27T13:47:00.164Z,35.40
2019-06-27T13:49:27.943Z,35.50
2019-06-27T13:51:55.609Z,35.30
2019-06-27T13:54:23.385Z,35.30
2019-06-27T13:56:51.042Z,35.30
2019-06-27T13:59:18.786Z,35.50
2019-06-27T14:01:46.479Z,35.40
2019-06-27T14:04:14.219Z,35.20
2019-06-27T14:06:41.886Z,35.10
2019-06-27T14:09:21.918Z,35.20
2019-06-27T14:11:39.377Z,35.20
2019-06-27T14:14:10.449Z,35.40
2019-06-27T14:16:36.953Z,35.40
2019-06-27T14:19:04.748Z,35.20
2019-06-27T14:21:32.446Z,35.20
2019-06-27T14:24:00.182Z,34.90
2019-06-27T14:26:27.906Z,34.70
2019-06-27T14:28:55.747Z,34.80
2019-06-27T14:31:23.441Z,34.70
2019-06-27T14:33:51.390Z,34.70
2019-06-27T14:36:19.099Z,35.00
2019-06-27T14:38:46.929Z,34.90
2019-06-27T14:41:14.654Z,34.90
2019-06-27T14:43:42.471Z,35.00
2019-06-27T14:46:10.159Z,35.10
2019-06-27T14:48:37.943Z,35.20
2019-06-27T14:51:05.759Z,35.10
2019-06-27T14:53:33.537Z,35.10
2019-06-27T14:56:01.392Z,35.00
2019-06-27T14:58:33.114Z,35.10
2019-06-27T15:00:58.746Z,35.00
2019-06-27T15:03:26.343Z,34.70
2019-06-27T15:05:54.088Z,34.70
2019-06-27T15:08:21.781Z,34.60
2019-06-27T15:10:49.622Z,34.60
2019-06-27T15:13:17.495Z,34.60
2019-06-27T15:15:45.234Z,34.40
2019-06-27T15:18:16.360Z,34.50
2019-06-27T15:20:42.522Z,34.40
2019-06-27T15:23:10.314Z,34.30
2019-06-27T15:25:38.073Z,34.20
2019-06-27T15:28:05.998Z,34.20
2019-06-27T15:30:33.838Z,34.20
2019-06-27T15:33:01.551Z,34.00
2019-06-27T15:35:29.424Z,33.90
2019-06-27T15:37:57.286Z,33.80
2019-06-27T15:40:25.074Z,33.70
2019-06-27T15:42:52.755Z,33.80
2019-06-27T15:45:20.635Z,33.80
2019-06-27T15:47:48.507Z,33.70
2019-06-27T15:50:16.463Z,33.60
2019-06-27T15:52:44.330Z,33.40
2019-06-27T15:55:12.530Z,33.50
2019-06-27T15:57:40.698Z,33.50
2019-06-27T16:00:09.126Z,33.50
2019-06-27T16:02:37.210Z,33.40
2019-06-27T16:05:05.110Z,33.30
2019-06-27T16:07:33.272Z,33.20
2019-06-27T16:10:00.984Z,33.10
2019-06-27T16:12:30.347Z,33.00
2019-06-27T16:14:58.016Z,32.90
2019-06-27T16:17:25.779Z,32.80
2019-06-27T16:19:53.569Z,32.80
2019-06-27T17:21:36.302Z,31.40
2019-06-27T17:24:04.313Z,31.30
2019-06-27T17:26:32.138Z,31.20
2019-06-27T17:28:59.925Z,31.00
2019-06-27T17:31:27.831Z,31.00
2019-06-27T17:33:55.673Z,31.00
2019-06-27T17:36:23.361Z,30.80
2019-06-27T17:38:51.440Z,30.80
2019-06-27T17:41:19.323Z,30.80
2019-06-27T17:43:47.026Z,30.80
2019-06-27T17:46:14.799Z,30.70
2019-06-27T17:48:42.510Z,30.60
2019-06-27T17:51:41.409Z,30.50
2019-06-27T17:54:09.142Z,30.50
2019-06-27T17:56:37.018Z,30.40
2019-06-27T17:59:04.906Z,30.20
2019-06-27T18:01:32.722Z,30.10
2019-06-27T18:04:00.416Z,30.00
2019-06-27T18:06:28.246Z,29.90
2019-06-27T18:08:55.947Z,29.90
2019-06-27T18:11:23.699Z,29.80
2019-06-27T18:13:51.485Z,29.70
2019-06-27T18:16:19.266Z,29.80
2019-06-27T18:18:46.984Z,29.60
2019-06-27T18:21:14.794Z,29.50
2019-06-27T18:23:42.482Z,29.50
2019-06-27T18:26:10.372Z,29.40
2019-06-27T18:28:38.238Z,29.40
2019-06-27T18:31:06.137Z,29.30
2019-06-27T18:33:33.917Z,29.30
2019-06-27T18:36:03.145Z,29.20
2019-06-27T18:38:31.357Z,29.10
2019-06-27T18:40:59.254Z,29.20
2019-06-27T18:43:26.937Z,29.20
2019-06-27T18:45:54.738Z,29.20
2019-06-27T18:48:22.440Z,29.10
2019-06-27T18:50:50.128Z,28.90
2019-06-27T18:53:18.011Z,28.80
2019-06-27T18:55:45.828Z,28.80
2019-06-27T18:58:13.603Z,28.70
2019-06-27T19:00:41.451Z,28.60
2019-06-27T19:03:09.303Z,28.50
2019-06-27T19:05:37.291Z,28.40
2019-06-27T19:08:05.004Z,28.30
2019-06-27T19:10:32.824Z,28.10
2019-06-27T19:13:00.596Z,28.00
2019-06-27T19:15:28.384Z,28.00
2019-06-27T19:17:56.187Z,28.10
2019-06-27T19:20:41.396Z,28.00
2019-06-27T19:23:48.754Z,27.90
2019-06-27T19:26:18.170Z,27.90
2019-06-27T19:28:45.995Z,27.80
2019-06-27T19:31:13.893Z,27.80
2019-06-27T19:33:41.946Z,28.00
2019-06-27T19:36:09.836Z,28.00
2019-06-27T19:38:37.760Z,27.90
2019-06-27T19:41:05.492Z,27.90
2019-06-27T19:43:33.306Z,27.80
2019-06-27T19:46:01.088Z,27.80
2019-06-27T19:48:28.945Z,27.60
2019-06-27T19:50:56.647Z,27.50
2019-06-27T19:53:24.534Z,27.50
2019-06-27T19:55:52.282Z,27.30
2019-06-27T19:58:20.179Z,27.20
2019-06-27T20:00:47.872Z,27.10
2019-06-27T20:03:15.673Z,26.90
2019-06-27T20:05:43.381Z,26.70
2019-06-27T20:08:18.959Z,26.60
2019-06-27T20:10:41.141Z,26.40
2019-06-27T20:13:08.880Z,26.30
2019-06-27T20:15:36.723Z,26.20
2019-06-27T20:18:04.594Z,26.00
2019-06-27T20:20:32.445Z,25.90
2019-06-27T20:23:00.320Z,25.80
2019-06-27T20:25:28.241Z,25.70
2019-06-27T20:27:55.979Z,25.70
2019-06-27T20:30:23.836Z,25.50
2019-06-27T20:32:53.177Z,25.50
2019-06-27T20:35:21.012Z,25.50
2019-06-27T20:37:48.752Z,25.60
2019-06-27T20:40:16.788Z,25.50
2019-06-27T20:42:44.834Z,25.60
2019-06-27T20:45:13.017Z,25.60
2019-06-27T20:47:40.940Z,25.60
2019-06-27T20:50:09.169Z,25.60
2019-06-27T20:52:38.133Z,25.70
2019-06-27T20:55:06.126Z,25.70
2019-06-27T20:57:34.260Z,25.60
2019-06-27T21:00:02.073Z,25.50
2019-06-27T21:02:31.284Z,25.60
2019-06-27T21:04:59.146Z,25.50
2019-06-27T21:07:26.901Z,25.50
2019-06-27T21:09:54.629Z,25.40
2019-06-27T21:12:22.388Z,25.40
2019-06-27T21:14:50.122Z,25.50
2019-06-27T21:17:18.118Z,25.50
2019-06-27T21:19:45.814Z,25.50
2019-06-27T21:22:13.604Z,25.50
2019-06-27T21:24:41.332Z,25.30
2019-06-27T21:27:09.146Z,25.30
2019-06-27T21:29:36.966Z,25.30
2019-06-27T21:32:04.770Z,25.30
2019-06-27T21:34:32.533Z,25.20
2019-06-27T21:37:00.332Z,25.10
2019-06-27T21:39:28.146Z,25.20
2019-06-27T21:41:55.947Z,25.20
2019-06-27T21:44:23.679Z,25.20
2019-06-27T21:46:51.507Z,25.20
2019-06-27T21:49:19.339Z,25.20
2019-06-27T21:51:47.142Z,25.20
2019-06-27T21:54:14.912Z,25.20
2019-06-27T21:56:42.747Z,25.20
2019-06-27T21:59:10.435Z,25.20
2019-06-27T22:01:38.218Z,25.20
2019-06-27T22:04:05.985Z,25.10
2019-06-27T22:06:33.886Z,25.10
2019-06-27T22:09:03.147Z,25.00
2019-06-27T22:11:31.901Z,24.90
2019-06-27T22:13:59.601Z,24.80
2019-06-27T22:16:27.571Z,24.70
2019-06-27T22:18:55.254Z,24.60
2019-06-27T22:21:23.041Z,24.60
2019-06-27T22:23:50.946Z,24.50
2019-06-27T22:26:18.719Z,24.40
2019-06-27T22:28:46.705Z,24.30
2019-06-27T22:31:14.361Z,24.20
2019-06-27T22:33:42.200Z,24.00
2019-06-27T22:36:10.002Z,24.00
2019-06-27T22:38:55.987Z,24.00
2019-06-27T22:41:43.182Z,23.80
2019-06-27T22:44:30.965Z,23.70
2019-06-27T22:47:18.741Z,23.60
2019-06-27T22:49:49.077Z,23.50
2019-06-27T22:52:35.815Z,23.50
2019-06-27T22:55:06.454Z,23.50
2019-06-27T22:57:35.736Z,23.50
2019-06-27T23:00:04.063Z,23.40
2019-06-27T23:02:32.176Z,23.40
2019-06-27T23:05:00.038Z,23.30
2019-06-27T23:07:27.914Z,23.40
2019-06-27T23:09:57.331Z,23.30
2019-06-27T23:12:25.430Z,23.20
2019-06-27T23:14:53.202Z,23.00
2019-06-27T23:17:20.891Z,23.00
2019-06-27T23:19:48.620Z,22.90
2019-06-27T23:22:16.305Z,22.80
2019-06-27T23:24:44.177Z,22.60
2019-06-27T23:27:11.878Z,22.50
2019-06-27T23:29:39.633Z,22.50
2019-06-27T23:32:07.431Z,22.50
2019-06-27T23:34:35.161Z,22.30
2019-06-27T23:37:02.917Z,22.20
2019-06-27T23:39:30.773Z,22.20
2019-06-27T23:41:58.436Z,22.30
2019-06-27T23:44:26.202Z,22.20
2019-06-27T23:46:53.883Z,22.30
2019-06-27T23:49:21.656Z,22.20
2019-06-27T23:51:49.338Z,22.20
2019-06-27T23:54:17.026Z,22.20
2019-06-27T23:56:44.726Z,22.20
2019-06-27T23:59:12.609Z,22.20
